Orlando, Florida
Traffic Map
Current Weather Conditions
Orlando, Florida
Overcast
Overcast
70°
Feels Like: 70°
Wind Chill: 70° Ceiling: 1200
Heat Index: 70° Visibility: 9mi
Dew Point: 63° Wind: 12mph
Humidity: 78% Direction: 10° (N)
Pressure: 30.16in Gusts: 0mph
Raw Report DataKORL 210153Z 01010KT 9SM OVC012 21/17 A3016 RMK AO2 SLP217 T02110172
Traffic Incident Summary
Active as of:
Severity:
Category:
InformationThere was an issue retrieving the traffic information for this location. Please try a different location or try again shortly.
Advertisements